Fitchville, Ohio
Current Conditions -  °F | °C
As of 1:52 PM on Friday 31 Oct 2014 (Local Time) from KMFD Reporting Station
Overcast Overcast  
Wind Chill: 41°   Ceiling: 3300
Heat Index: 44°   Visibility: 9mi
Dew Point: 37°   Wind: 6mph
Humidity: 76%   Direction: 250°WSW
Pressure: 29.86"   Gusts: NA
Location:  41.1035°N, 82.407°W
Report Text: KMFD 311752Z 25005KT 9SM BKN033 OVC041 07/03 A2986 RMK AO2 SLP115 T00670028 10078 20050 58015
Loading
Personal Weather Stations






























Interactive Weather Map
Tropical Storm Tracking
New forecast layout! Learn more

10-Day Weather Forecast

Advertisements
Track Severe Weather on mobile